sensor_id;sensor_type;location;lat;lon;timestamp;P1;durP1;ratioP1;P2;durP2;ratioP2
43620;SDS011;29213;50.770;7.298;2023-10-13T00:01:53;7.57;;;3.50;;
43620;SDS011;29213;50.770;7.298;2023-10-13T00:04:20;6.95;;;3.90;;
43620;SDS011;29213;50.770;7.298;2023-10-13T00:06:52;5.97;;;3.80;;
43620;SDS011;29213;50.770;7.298;2023-10-13T00:09:18;6.80;;;3.90;;
43620;SDS011;29213;50.770;7.298;2023-10-13T00:11:45;5.43;;;3.78;;
43620;SDS011;29213;50.770;7.298;2023-10-13T00:14:14;7.05;;;3.75;;
43620;SDS011;29213;50.770;7.298;2023-10-13T00:16:43;6.70;;;3.83;;
43620;SDS011;29213;50.770;7.298;2023-10-13T00:19:31;7.70;;;3.72;;
43620;SDS011;29213;50.770;7.298;2023-10-13T00:22:03;6.20;;;3.90;;
43620;SDS011;29213;50.770;7.298;2023-10-13T00:24:38;5.65;;;3.80;;
43620;SDS011;29213;50.770;7.298;2023-10-13T00:27:12;5.65;;;3.70;;
43620;SDS011;29213;50.770;7.298;2023-10-13T00:30:05;4.97;;;3.60;;
43620;SDS011;29213;50.770;7.298;2023-10-13T00:32:50;5.45;;;3.53;;
43620;SDS011;29213;50.770;7.298;2023-10-13T00:35:18;5.40;;;3.60;;
43620;SDS011;29213;50.770;7.298;2023-10-13T00:38:00;6.20;;;3.60;;
43620;SDS011;29213;50.770;7.298;2023-10-13T00:40:30;6.38;;;3.92;;
43620;SDS011;29213;50.770;7.298;2023-10-13T00:42:57;5.45;;;3.30;;
43620;SDS011;29213;50.770;7.298;2023-10-13T00:48:31;5.82;;;3.58;;
43620;SDS011;29213;50.770;7.298;2023-10-13T00:51:07;6.88;;;3.63;;
43620;SDS011;29213;50.770;7.298;2023-10-13T00:53:37;5.55;;;3.33;;
43620;SDS011;29213;50.770;7.298;2023-10-13T00:56:05;6.25;;;3.45;;
43620;SDS011;29213;50.770;7.298;2023-10-13T00:58:44;5.82;;;3.58;;
43620;SDS011;29213;50.770;7.298;2023-10-13T01:01:11;6.90;;;3.55;;
43620;SDS011;29213;50.770;7.298;2023-10-13T01:03:52;6.20;;;3.70;;
43620;SDS011;29213;50.770;7.298;2023-10-13T01:06:20;6.68;;;3.45;;
43620;SDS011;29213;50.770;7.298;2023-10-13T01:09:00;8.32;;;3.50;;
43620;SDS011;29213;50.770;7.298;2023-10-13T01:11:42;8.20;;;3.53;;
43620;SDS011;29213;50.770;7.298;2023-10-13T01:14:13;7.10;;;3.75;;
43620;SDS011;29213;50.770;7.298;2023-10-13T01:16:43;9.85;;;4.40;;
43620;SDS011;29213;50.770;7.298;2023-10-13T01:19:10;6.85;;;4.53;;
43620;SDS011;29213;50.770;7.298;2023-10-13T01:21:38;8.63;;;4.63;;
43620;SDS011;29213;50.770;7.298;2023-10-13T01:24:06;7.13;;;4.32;;
43620;SDS011;29213;50.770;7.298;2023-10-13T01:26:33;9.45;;;5.25;;
43620;SDS011;29213;50.770;7.298;2023-10-13T01:29:05;12.43;;;5.45;;
43620;SDS011;29213;50.770;7.298;2023-10-13T01:31:37;8.75;;;4.80;;
43620;SDS011;29213;50.770;7.298;2023-10-13T01:34:15;8.07;;;4.70;;
43620;SDS011;29213;50.770;7.298;2023-10-13T01:36:47;9.13;;;5.07;;
43620;SDS011;29213;50.770;7.298;2023-10-13T01:39:16;7.68;;;5.20;;
43620;SDS011;29213;50.770;7.298;2023-10-13T01:41:42;9.45;;;5.10;;
43620;SDS011;29213;50.770;7.298;2023-10-13T01:44:08;9.55;;;5.40;;
43620;SDS011;29213;50.770;7.298;2023-10-13T01:46:37;8.65;;;5.40;;
43620;SDS011;29213;50.770;7.298;2023-10-13T01:49:07;9.13;;;4.80;;
43620;SDS011;29213;50.770;7.298;2023-10-13T01:51:33;7.82;;;4.85;;
43620;SDS011;29213;50.770;7.298;2023-10-13T01:53:59;8.25;;;5.30;;
43620;SDS011;29213;50.770;7.298;2023-10-13T01:56:28;9.50;;;5.20;;
43620;SDS011;29213;50.770;7.298;2023-10-13T01:58:56;8.43;;;5.20;;
43620;SDS011;29213;50.770;7.298;2023-10-13T02:01:22;7.35;;;4.85;;
43620;SDS011;29213;50.770;7.298;2023-10-13T02:03:57;6.93;;;4.45;;
43620;SDS011;29213;50.770;7.298;2023-10-13T02:06:32;7.82;;;5.25;;
43620;SDS011;29213;50.770;7.298;2023-10-13T02:09:05;14.85;;;5.05;;
43620;SDS011;29213;50.770;7.298;2023-10-13T02:11:51;9.05;;;5.32;;
43620;SDS011;29213;50.770;7.298;2023-10-13T02:14:22;10.15;;;5.65;;
43620;SDS011;29213;50.770;7.298;2023-10-13T02:16:50;8.02;;;5.20;;
43620;SDS011;29213;50.770;7.298;2023-10-13T02:19:20;8.13;;;5.18;;
43620;SDS011;29213;50.770;7.298;2023-10-13T02:21:46;11.50;;;5.07;;
43620;SDS011;29213;50.770;7.298;2023-10-13T02:24:23;8.32;;;4.68;;
43620;SDS011;29213;50.770;7.298;2023-10-13T02:26:54;9.80;;;5.03;;
43620;SDS011;29213;50.770;7.298;2023-10-13T02:29:21;7.20;;;4.43;;
43620;SDS011;29213;50.770;7.298;2023-10-13T02:31:47;9.57;;;5.05;;
43620;SDS011;29213;50.770;7.298;2023-10-13T02:34:20;6.90;;;5.10;;
43620;SDS011;29213;50.770;7.298;2023-10-13T02:36:47;7.82;;;5.05;;
43620;SDS011;29213;50.770;7.298;2023-10-13T02:39:16;7.43;;;5.05;;
43620;SDS011;29213;50.770;7.298;2023-10-13T02:41:43;12.00;;;6.40;;
43620;SDS011;29213;50.770;7.298;2023-10-13T02:44:13;8.73;;;6.15;;
43620;SDS011;29213;50.770;7.298;2023-10-13T02:47:05;7.97;;;5.25;;
43620;SDS011;29213;50.770;7.298;2023-10-13T02:49:38;8.20;;;5.00;;
43620;SDS011;29213;50.770;7.298;2023-10-13T02:52:08;7.88;;;5.57;;
43620;SDS011;29213;50.770;7.298;2023-10-13T02:54:34;9.10;;;5.63;;
43620;SDS011;29213;50.770;7.298;2023-10-13T02:57:05;8.60;;;5.38;;
43620;SDS011;29213;50.770;7.298;2023-10-13T02:59:31;9.20;;;5.95;;
43620;SDS011;29213;50.770;7.298;2023-10-13T03:02:04;10.23;;;5.90;;
43620;SDS011;29213;50.770;7.298;2023-10-13T03:04:43;10.93;;;6.03;;
43620;SDS011;29213;50.770;7.298;2023-10-13T03:07:12;10.75;;;6.97;;
43620;SDS011;29213;50.770;7.298;2023-10-13T03:09:41;12.95;;;6.95;;
43620;SDS011;29213;50.770;7.298;2023-10-13T03:12:15;10.85;;;6.55;;
43620;SDS011;29213;50.770;7.298;2023-10-13T03:14:41;7.32;;;5.40;;
43620;SDS011;29213;50.770;7.298;2023-10-13T03:17:06;11.35;;;7.00;;
43620;SDS011;29213;50.770;7.298;2023-10-13T03:19:34;10.07;;;6.78;;
43620;SDS011;29213;50.770;7.298;2023-10-13T03:22:09;9.70;;;6.25;;
43620;SDS011;29213;50.770;7.298;2023-10-13T03:24:39;11.98;;;6.35;;
43620;SDS011;29213;50.770;7.298;2023-10-13T03:27:12;11.57;;;6.57;;
43620;SDS011;29213;50.770;7.298;2023-10-13T03:29:42;10.32;;;6.22;;
43620;SDS011;29213;50.770;7.298;2023-10-13T03:32:09;12.75;;;6.80;;
43620;SDS011;29213;50.770;7.298;2023-10-13T03:34:43;12.48;;;6.82;;
43620;SDS011;29213;50.770;7.298;2023-10-13T03:37:25;10.02;;;6.22;;
43620;SDS011;29213;50.770;7.298;2023-10-13T03:40:06;9.30;;;6.53;;
43620;SDS011;29213;50.770;7.298;2023-10-13T03:42:44;12.75;;;7.20;;
43620;SDS011;29213;50.770;7.298;2023-10-13T03:45:23;10.30;;;6.70;;
43620;SDS011;29213;50.770;7.298;2023-10-13T03:47:50;12.38;;;7.18;;
43620;SDS011;29213;50.770;7.298;2023-10-13T03:50:17;10.77;;;6.25;;
43620;SDS011;29213;50.770;7.298;2023-10-13T03:52:54;11.10;;;6.43;;
43620;SDS011;29213;50.770;7.298;2023-10-13T03:55:23;10.00;;;6.47;;
43620;SDS011;29213;50.770;7.298;2023-10-13T03:57:55;9.52;;;6.82;;
43620;SDS011;29213;50.770;7.298;2023-10-13T04:00:24;11.13;;;6.60;;
43620;SDS011;29213;50.770;7.298;2023-10-13T04:02:51;9.75;;;6.78;;
43620;SDS011;29213;50.770;7.298;2023-10-13T04:05:34;9.95;;;6.93;;
43620;SDS011;29213;50.770;7.298;2023-10-13T04:08:07;9.98;;;6.68;;
43620;SDS011;29213;50.770;7.298;2023-10-13T04:10:51;11.25;;;6.70;;
43620;SDS011;29213;50.770;7.298;2023-10-13T04:13:17;9.63;;;6.63;;
43620;SDS011;29213;50.770;7.298;2023-10-13T04:16:02;12.07;;;7.18;;
43620;SDS011;29213;50.770;7.298;2023-10-13T04:18:46;13.30;;;6.53;;
43620;SDS011;29213;50.770;7.298;2023-10-13T04:21:32;9.52;;;6.20;;
43620;SDS011;29213;50.770;7.298;2023-10-13T04:24:05;8.20;;;6.30;;
43620;SDS011;29213;50.770;7.298;2023-10-13T04:26:44;8.05;;;6.13;;
43620;SDS011;29213;50.770;7.298;2023-10-13T04:29:29;8.10;;;5.90;;
43620;SDS011;29213;50.770;7.298;2023-10-13T04:32:13;8.48;;;5.75;;
43620;SDS011;29213;50.770;7.298;2023-10-13T04:34:57;11.73;;;6.68;;
43620;SDS011;29213;50.770;7.298;2023-10-13T04:37:35;9.52;;;5.97;;
43620;SDS011;29213;50.770;7.298;2023-10-13T04:40:40;9.10;;;5.93;;
43620;SDS011;29213;50.770;7.298;2023-10-13T04:43:23;8.68;;;5.85;;
43620;SDS011;29213;50.770;7.298;2023-10-13T04:46:01;11.35;;;7.05;;
43620;SDS011;29213;50.770;7.298;2023-10-13T04:48:46;9.40;;;6.55;;
43620;SDS011;29213;50.770;7.298;2023-10-13T04:51:12;13.02;;;7.15;;
43620;SDS011;29213;50.770;7.298;2023-10-13T04:53:59;10.35;;;6.28;;
43620;SDS011;29213;50.770;7.298;2023-10-13T04:56:50;10.13;;;6.07;;
43620;SDS011;29213;50.770;7.298;2023-10-13T04:59:39;9.48;;;6.30;;
43620;SDS011;29213;50.770;7.298;2023-10-13T05:02:24;9.38;;;6.32;;
43620;SDS011;29213;50.770;7.298;2023-10-13T05:05:07;7.97;;;5.82;;
43620;SDS011;29213;50.770;7.298;2023-10-13T05:07:57;8.95;;;5.93;;
43620;SDS011;29213;50.770;7.298;2023-10-13T05:10:41;11.65;;;6.90;;
43620;SDS011;29213;50.770;7.298;2023-10-13T05:13:25;9.65;;;6.43;;
43620;SDS011;29213;50.770;7.298;2023-10-13T05:16:09;9.25;;;6.30;;
43620;SDS011;29213;50.770;7.298;2023-10-13T05:18:53;8.13;;;5.63;;
43620;SDS011;29213;50.770;7.298;2023-10-13T05:21:37;8.02;;;5.82;;
43620;SDS011;29213;50.770;7.298;2023-10-13T05:24:21;11.25;;;6.20;;
43620;SDS011;29213;50.770;7.298;2023-10-13T05:27:05;9.30;;;5.90;;
43620;SDS011;29213;50.770;7.298;2023-10-13T05:29:49;11.20;;;5.85;;
43620;SDS011;29213;50.770;7.298;2023-10-13T05:32:34;7.60;;;5.13;;
43620;SDS011;29213;50.770;7.298;2023-10-13T05:35:19;7.10;;;4.95;;
43620;SDS011;29213;50.770;7.298;2023-10-13T05:38:04;7.00;;;4.95;;
43620;SDS011;29213;50.770;7.298;2023-10-13T05:40:52;7.85;;;4.95;;
43620;SDS011;29213;50.770;7.298;2023-10-13T05:43:35;8.55;;;5.07;;
43620;SDS011;29213;50.770;7.298;2023-10-13T05:46:20;9.30;;;4.95;;
43620;SDS011;29213;50.770;7.298;2023-10-13T05:49:01;8.18;;;5.55;;
43620;SDS011;29213;50.770;7.298;2023-10-13T05:51:28;8.43;;;5.50;;
43620;SDS011;29213;50.770;7.298;2023-10-13T05:54:01;7.38;;;4.97;;
43620;SDS011;29213;50.770;7.298;2023-10-13T05:59:28;9.38;;;4.70;;
43620;SDS011;29213;50.770;7.298;2023-10-13T06:02:14;8.35;;;4.80;;
43620;SDS011;29213;50.770;7.298;2023-10-13T06:05:17;10.35;;;5.80;;
43620;SDS011;29213;50.770;7.298;2023-10-13T06:08:01;9.20;;;5.65;;
43620;SDS011;29213;50.770;7.298;2023-10-13T06:10:47;10.70;;;5.82;;
43620;SDS011;29213;50.770;7.298;2023-10-13T06:13:31;6.38;;;4.47;;
43620;SDS011;29213;50.770;7.298;2023-10-13T06:16:16;7.20;;;4.60;;
43620;SDS011;29213;50.770;7.298;2023-10-13T06:19:01;7.32;;;4.50;;
43620;SDS011;29213;50.770;7.298;2023-10-13T06:21:45;5.75;;;4.15;;
43620;SDS011;29213;50.770;7.298;2023-10-13T06:24:29;6.70;;;4.45;;
43620;SDS011;29213;50.770;7.298;2023-10-13T06:27:14;8.80;;;4.65;;
43620;SDS011;29213;50.770;7.298;2023-10-13T06:29:58;7.13;;;4.30;;
43620;SDS011;29213;50.770;7.298;2023-10-13T06:32:23;6.78;;;4.05;;
43620;SDS011;29213;50.770;7.298;2023-10-13T06:34:55;7.28;;;4.28;;
43620;SDS011;29213;50.770;7.298;2023-10-13T06:37:30;7.35;;;4.50;;
43620;SDS011;29213;50.770;7.298;2023-10-13T06:39:57;8.93;;;4.82;;
43620;SDS011;29213;50.770;7.298;2023-10-13T06:42:35;6.43;;;4.68;;
43620;SDS011;29213;50.770;7.298;2023-10-13T06:45:08;7.50;;;4.43;;
43620;SDS011;29213;50.770;7.298;2023-10-13T06:47:34;8.30;;;4.50;;
43620;SDS011;29213;50.770;7.298;2023-10-13T06:50:08;10.15;;;5.10;;
43620;SDS011;29213;50.770;7.298;2023-10-13T06:52:47;7.97;;;4.30;;
43620;SDS011;29213;50.770;7.298;2023-10-13T06:57:42;6.25;;;4.10;;
43620;SDS011;29213;50.770;7.298;2023-10-13T07:00:12;7.93;;;4.90;;
43620;SDS011;29213;50.770;7.298;2023-10-13T07:02:54;10.32;;;6.35;;
43620;SDS011;29213;50.770;7.298;2023-10-13T07:05:48;8.77;;;4.93;;
43620;SDS011;29213;50.770;7.298;2023-10-13T07:08:14;8.63;;;5.32;;
43620;SDS011;29213;50.770;7.298;2023-10-13T07:10:48;11.43;;;5.63;;
43620;SDS011;29213;50.770;7.298;2023-10-13T07:13:17;10.43;;;5.80;;
43620;SDS011;29213;50.770;7.298;2023-10-13T07:15:45;7.85;;;4.68;;
43620;SDS011;29213;50.770;7.298;2023-10-13T07:18:14;10.18;;;5.13;;
43620;SDS011;29213;50.770;7.298;2023-10-13T07:20:43;9.77;;;5.07;;
43620;SDS011;29213;50.770;7.298;2023-10-13T07:23:12;9.23;;;4.68;;
43620;SDS011;29213;50.770;7.298;2023-10-13T07:25:52;9.70;;;4.97;;
43620;SDS011;29213;50.770;7.298;2023-10-13T07:28:28;9.05;;;4.95;;
43620;SDS011;29213;50.770;7.298;2023-10-13T07:30:56;10.43;;;4.85;;
43620;SDS011;29213;50.770;7.298;2023-10-13T07:33:24;8.48;;;4.90;;
43620;SDS011;29213;50.770;7.298;2023-10-13T07:36:00;8.27;;;4.78;;
43620;SDS011;29213;50.770;7.298;2023-10-13T07:38:36;9.98;;;5.28;;
43620;SDS011;29213;50.770;7.298;2023-10-13T07:41:03;11.25;;;5.05;;
43620;SDS011;29213;50.770;7.298;2023-10-13T07:43:33;6.57;;;4.43;;
43620;SDS011;29213;50.770;7.298;2023-10-13T07:45:59;10.20;;;5.35;;
43620;SDS011;29213;50.770;7.298;2023-10-13T07:48:25;12.38;;;5.53;;
43620;SDS011;29213;50.770;7.298;2023-10-13T07:51:00;12.60;;;5.10;;
43620;SDS011;29213;50.770;7.298;2023-10-13T07:53:33;7.72;;;4.28;;
43620;SDS011;29213;50.770;7.298;2023-10-13T07:56:14;8.23;;;4.40;;
43620;SDS011;29213;50.770;7.298;2023-10-13T08:01:17;8.82;;;4.70;;
43620;SDS011;29213;50.770;7.298;2023-10-13T08:03:46;10.00;;;4.93;;
43620;SDS011;29213;50.770;7.298;2023-10-13T08:06:13;13.02;;;5.15;;
43620;SDS011;29213;50.770;7.298;2023-10-13T08:08:42;10.70;;;4.70;;
43620;SDS011;29213;50.770;7.298;2023-10-13T08:11:14;6.90;;;4.13;;
43620;SDS011;29213;50.770;7.298;2023-10-13T08:13:50;8.55;;;4.30;;
43620;SDS011;29213;50.770;7.298;2023-10-13T08:16:23;7.47;;;3.72;;
43620;SDS011;29213;50.770;7.298;2023-10-13T08:18:53;9.30;;;4.28;;
43620;SDS011;29213;50.770;7.298;2023-10-13T08:21:19;6.97;;;4.40;;
43620;SDS011;29213;50.770;7.298;2023-10-13T08:23:57;9.82;;;4.13;;
43620;SDS011;29213;50.770;7.298;2023-10-13T08:39:52;7.72;;;3.83;;
43620;SDS011;29213;50.770;7.298;2023-10-13T08:42:35;10.45;;;4.43;;
43620;SDS011;29213;50.770;7.298;2023-10-13T08:45:14;10.20;;;4.10;;
43620;SDS011;29213;50.770;7.298;2023-10-13T08:48:06;8.45;;;4.15;;
43620;SDS011;29213;50.770;7.298;2023-10-13T08:50:37;7.32;;;3.80;;
43620;SDS011;29213;50.770;7.298;2023-10-13T08:56:05;10.73;;;5.05;;
43620;SDS011;29213;50.770;7.298;2023-10-13T08:58:44;7.47;;;4.05;;
43620;SDS011;29213;50.770;7.298;2023-10-13T09:01:23;10.25;;;4.35;;
43620;SDS011;29213;50.770;7.298;2023-10-13T09:04:06;8.75;;;3.72;;
43620;SDS011;29213;50.770;7.298;2023-10-13T09:06:54;8.27;;;3.95;;
43620;SDS011;29213;50.770;7.298;2023-10-13T09:12:24;7.80;;;3.92;;
43620;SDS011;29213;50.770;7.298;2023-10-13T09:17:31;12.48;;;4.10;;
43620;SDS011;29213;50.770;7.298;2023-10-13T09:20:07;7.95;;;4.25;;
43620;SDS011;29213;50.770;7.298;2023-10-13T09:22:54;10.85;;;4.53;;
43620;SDS011;29213;50.770;7.298;2023-10-13T09:25:32;12.63;;;5.68;;
43620;SDS011;29213;50.770;7.298;2023-10-13T09:30:28;12.55;;;5.50;;
43620;SDS011;29213;50.770;7.298;2023-10-13T09:32:59;8.48;;;4.68;;
43620;SDS011;29213;50.770;7.298;2023-10-13T09:35:29;9.32;;;5.40;;
43620;SDS011;29213;50.770;7.298;2023-10-13T09:37:59;9.77;;;5.50;;
43620;SDS011;29213;50.770;7.298;2023-10-13T09:43:03;11.00;;;5.70;;
43620;SDS011;29213;50.770;7.298;2023-10-13T09:45:33;8.88;;;5.35;;
43620;SDS011;29213;50.770;7.298;2023-10-13T09:48:09;8.60;;;5.35;;
43620;SDS011;29213;50.770;7.298;2023-10-13T09:50:46;10.20;;;5.43;;
43620;SDS011;29213;50.770;7.298;2023-10-13T09:53:13;9.90;;;5.15;;
43620;SDS011;29213;50.770;7.298;2023-10-13T09:55:48;10.20;;;5.47;;
43620;SDS011;29213;50.770;7.298;2023-10-13T09:58:20;11.10;;;5.75;;
43620;SDS011;29213;50.770;7.298;2023-10-13T10:00:54;9.10;;;5.32;;
43620;SDS011;29213;50.770;7.298;2023-10-13T10:03:47;8.85;;;5.15;;
43620;SDS011;29213;50.770;7.298;2023-10-13T10:06:32;9.88;;;5.97;;
43620;SDS011;29213;50.770;7.298;2023-10-13T10:09:04;13.10;;;5.60;;
43620;SDS011;29213;50.770;7.298;2023-10-13T10:14:44;8.63;;;5.55;;
43620;SDS011;29213;50.770;7.298;2023-10-13T10:17:38;9.15;;;5.10;;
43620;SDS011;29213;50.770;7.298;2023-10-13T10:20:07;9.20;;;5.93;;
43620;SDS011;29213;50.770;7.298;2023-10-13T10:22:40;8.32;;;5.00;;
43620;SDS011;29213;50.770;7.298;2023-10-13T10:25:13;10.35;;;5.43;;
43620;SDS011;29213;50.770;7.298;2023-10-13T10:27:54;10.13;;;5.60;;
43620;SDS011;29213;50.770;7.298;2023-10-13T10:30:27;10.13;;;5.82;;
43620;SDS011;29213;50.770;7.298;2023-10-13T10:32:56;9.32;;;5.55;;
43620;SDS011;29213;50.770;7.298;2023-10-13T10:35:26;11.05;;;5.40;;
43620;SDS011;29213;50.770;7.298;2023-10-13T10:38:10;8.50;;;5.63;;
43620;SDS011;29213;50.770;7.298;2023-10-13T10:40:49;9.48;;;5.22;;
43620;SDS011;29213;50.770;7.298;2023-10-13T10:46:26;10.35;;;5.53;;
43620;SDS011;29213;50.770;7.298;2023-10-13T10:48:52;10.07;;;6.07;;
43620;SDS011;29213;50.770;7.298;2023-10-13T10:51:26;11.88;;;5.80;;
43620;SDS011;29213;50.770;7.298;2023-10-13T10:53:56;11.82;;;5.80;;
43620;SDS011;29213;50.770;7.298;2023-10-13T10:56:23;9.77;;;5.45;;
43620;SDS011;29213;50.770;7.298;2023-10-13T10:58:59;9.23;;;5.57;;
43620;SDS011;29213;50.770;7.298;2023-10-13T11:01:25;9.25;;;5.43;;
43620;SDS011;29213;50.770;7.298;2023-10-13T11:04:03;8.65;;;5.85;;
43620;SDS011;29213;50.770;7.298;2023-10-13T11:06:36;10.15;;;5.60;;
43620;SDS011;29213;50.770;7.298;2023-10-13T11:09:11;10.82;;;5.88;;
43620;SDS011;29213;50.770;7.298;2023-10-13T11:12:18;11.23;;;5.80;;
43620;SDS011;29213;50.770;7.298;2023-10-13T11:14:48;10.35;;;5.38;;
43620;SDS011;29213;50.770;7.298;2023-10-13T11:17:22;7.15;;;5.10;;
43620;SDS011;29213;50.770;7.298;2023-10-13T11:20:10;10.20;;;4.90;;
43620;SDS011;29213;50.770;7.298;2023-10-13T11:22:42;9.15;;;4.82;;
43620;SDS011;29213;50.770;7.298;2023-10-13T11:25:19;9.70;;;5.55;;
43620;SDS011;29213;50.770;7.298;2023-10-13T11:27:48;9.68;;;5.20;;
43620;SDS011;29213;50.770;7.298;2023-10-13T11:30:14;10.80;;;5.15;;
43620;SDS011;29213;50.770;7.298;2023-10-13T11:33:02;11.70;;;5.00;;
43620;SDS011;29213;50.770;7.298;2023-10-13T11:35:35;7.65;;;4.65;;
43620;SDS011;29213;50.770;7.298;2023-10-13T11:43:26;9.77;;;4.70;;
43620;SDS011;29213;50.770;7.298;2023-10-13T11:45:52;10.75;;;4.93;;
43620;SDS011;29213;50.770;7.298;2023-10-13T11:48:38;9.93;;;4.72;;
43620;SDS011;29213;50.770;7.298;2023-10-13T11:51:08;10.70;;;5.07;;
43620;SDS011;29213;50.770;7.298;2023-10-13T11:53:49;11.90;;;5.20;;
43620;SDS011;29213;50.770;7.298;2023-10-13T11:56:19;8.77;;;4.40;;
43620;SDS011;29213;50.770;7.298;2023-10-13T11:58:46;8.55;;;4.35;;
43620;SDS011;29213;50.770;7.298;2023-10-13T12:01:12;9.25;;;5.00;;
43620;SDS011;29213;50.770;7.298;2023-10-13T12:03:38;10.07;;;4.82;;
43620;SDS011;29213;50.770;7.298;2023-10-13T12:06:26;10.45;;;5.18;;
43620;SDS011;29213;50.770;7.298;2023-10-13T12:09:03;11.02;;;5.00;;
43620;SDS011;29213;50.770;7.298;2023-10-13T12:11:39;9.90;;;4.93;;
43620;SDS011;29213;50.770;7.298;2023-10-13T12:14:09;8.80;;;4.60;;
43620;SDS011;29213;50.770;7.298;2023-10-13T12:16:52;9.50;;;4.65;;
43620;SDS011;29213;50.770;7.298;2023-10-13T12:19:22;8.95;;;4.75;;
43620;SDS011;29213;50.770;7.298;2023-10-13T12:21:52;8.20;;;4.65;;
43620;SDS011;29213;50.770;7.298;2023-10-13T12:24:22;16.13;;;5.60;;
43620;SDS011;29213;50.770;7.298;2023-10-13T12:27:08;10.25;;;4.90;;
43620;SDS011;29213;50.770;7.298;2023-10-13T12:29:49;9.52;;;4.60;;
43620;SDS011;29213;50.770;7.298;2023-10-13T12:32:17;8.00;;;4.35;;
43620;SDS011;29213;50.770;7.298;2023-10-13T12:34:48;10.30;;;4.55;;
43620;SDS011;29213;50.770;7.298;2023-10-13T12:37:29;6.95;;;4.50;;
43620;SDS011;29213;50.770;7.298;2023-10-13T12:40:02;10.60;;;4.90;;
43620;SDS011;29213;50.770;7.298;2023-10-13T12:42:46;9.65;;;4.25;;
43620;SDS011;29213;50.770;7.298;2023-10-13T12:45:30;8.50;;;4.22;;
43620;SDS011;29213;50.770;7.298;2023-10-13T12:48:15;11.73;;;4.43;;
43620;SDS011;29213;50.770;7.298;2023-10-13T12:51:02;11.27;;;4.40;;
43620;SDS011;29213;50.770;7.298;2023-10-13T12:53:46;11.23;;;4.50;;
43620;SDS011;29213;50.770;7.298;2023-10-13T12:56:18;9.27;;;4.78;;
43620;SDS011;29213;50.770;7.298;2023-10-13T12:58:54;10.93;;;4.50;;
43620;SDS011;29213;50.770;7.298;2023-10-13T13:01:20;11.43;;;5.10;;
43620;SDS011;29213;50.770;7.298;2023-10-13T13:03:47;10.52;;;4.78;;
43620;SDS011;29213;50.770;7.298;2023-10-13T13:06:17;11.07;;;4.43;;
43620;SDS011;29213;50.770;7.298;2023-10-13T13:08:43;9.57;;;4.70;;
43620;SDS011;29213;50.770;7.298;2023-10-13T13:11:09;10.32;;;4.50;;
43620;SDS011;29213;50.770;7.298;2023-10-13T13:13:36;9.85;;;4.78;;
43620;SDS011;29213;50.770;7.298;2023-10-13T13:16:02;8.85;;;4.45;;
43620;SDS011;29213;50.770;7.298;2023-10-13T13:18:29;10.05;;;5.20;;
43620;SDS011;29213;50.770;7.298;2023-10-13T13:20:54;12.65;;;4.78;;
43620;SDS011;29213;50.770;7.298;2023-10-13T13:23:23;11.27;;;4.32;;
43620;SDS011;29213;50.770;7.298;2023-10-13T13:25:52;12.32;;;4.60;;
43620;SDS011;29213;50.770;7.298;2023-10-13T13:28:17;9.00;;;4.60;;
43620;SDS011;29213;50.770;7.298;2023-10-13T13:30:44;8.52;;;4.20;;
43620;SDS011;29213;50.770;7.298;2023-10-13T13:33:11;7.82;;;4.13;;
43620;SDS011;29213;50.770;7.298;2023-10-13T13:35:37;8.40;;;4.28;;
43620;SDS011;29213;50.770;7.298;2023-10-13T13:38:03;8.95;;;4.60;;
43620;SDS011;29213;50.770;7.298;2023-10-13T13:40:38;8.40;;;4.50;;
43620;SDS011;29213;50.770;7.298;2023-10-13T13:43:04;11.45;;;4.68;;
43620;SDS011;29213;50.770;7.298;2023-10-13T13:45:29;9.95;;;4.60;;
43620;SDS011;29213;50.770;7.298;2023-10-13T13:47:57;8.73;;;4.10;;
43620;SDS011;29213;50.770;7.298;2023-10-13T13:50:23;9.13;;;4.07;;
43620;SDS011;29213;50.770;7.298;2023-10-13T13:52:53;7.45;;;3.88;;
43620;SDS011;29213;50.770;7.298;2023-10-13T13:55:24;9.80;;;4.20;;
43620;SDS011;29213;50.770;7.298;2023-10-13T13:57:57;9.18;;;4.38;;
43620;SDS011;29213;50.770;7.298;2023-10-13T14:00:23;14.43;;;4.85;;
43620;SDS011;29213;50.770;7.298;2023-10-13T14:03:03;10.32;;;4.47;;
43620;SDS011;29213;50.770;7.298;2023-10-13T14:05:41;8.85;;;4.50;;
43620;SDS011;29213;50.770;7.298;2023-10-13T14:08:07;11.73;;;4.25;;
43620;SDS011;29213;50.770;7.298;2023-10-13T14:10:37;12.82;;;4.88;;
43620;SDS011;29213;50.770;7.298;2023-10-13T14:13:24;10.75;;;4.70;;
43620;SDS011;29213;50.770;7.298;2023-10-13T14:16:10;8.88;;;4.05;;
43620;SDS011;29213;50.770;7.298;2023-10-13T14:18:50;10.40;;;4.38;;
43620;SDS011;29213;50.770;7.298;2023-10-13T14:21:17;8.27;;;3.97;;
43620;SDS011;29213;50.770;7.298;2023-10-13T14:26:13;9.48;;;4.10;;
43620;SDS011;29213;50.770;7.298;2023-10-13T14:28:39;7.40;;;4.10;;
43620;SDS011;29213;50.770;7.298;2023-10-13T14:31:17;8.52;;;4.65;;
43620;SDS011;29213;50.770;7.298;2023-10-13T14:33:45;9.80;;;4.40;;
43620;SDS011;29213;50.770;7.298;2023-10-13T14:36:11;10.68;;;4.50;;
43620;SDS011;29213;50.770;7.298;2023-10-13T14:38:37;10.00;;;4.95;;
43620;SDS011;29213;50.770;7.298;2023-10-13T14:41:02;10.00;;;4.30;;
43620;SDS011;29213;50.770;7.298;2023-10-13T14:43:28;11.52;;;4.65;;
43620;SDS011;29213;50.770;7.298;2023-10-13T14:45:53;7.57;;;3.72;;
43620;SDS011;29213;50.770;7.298;2023-10-13T14:48:19;10.13;;;4.03;;
43620;SDS011;29213;50.770;7.298;2023-10-13T14:50:44;9.63;;;4.40;;
43620;SDS011;29213;50.770;7.298;2023-10-13T14:53:10;9.27;;;4.00;;
43620;SDS011;29213;50.770;7.298;2023-10-13T14:55:36;9.48;;;4.13;;
43620;SDS011;29213;50.770;7.298;2023-10-13T14:58:05;9.95;;;4.30;;
43620;SDS011;29213;50.770;7.298;2023-10-13T15:00:32;10.60;;;4.20;;
43620;SDS011;29213;50.770;7.298;2023-10-13T15:02:59;6.97;;;3.80;;
43620;SDS011;29213;50.770;7.298;2023-10-13T15:05:29;10.63;;;4.55;;
43620;SDS011;29213;50.770;7.298;2023-10-13T15:07:55;9.40;;;4.15;;
43620;SDS011;29213;50.770;7.298;2023-10-13T15:10:21;8.90;;;4.43;;
43620;SDS011;29213;50.770;7.298;2023-10-13T15:12:46;8.57;;;4.10;;
43620;SDS011;29213;50.770;7.298;2023-10-13T15:15:14;8.80;;;4.22;;
43620;SDS011;29213;50.770;7.298;2023-10-13T15:17:44;11.13;;;4.53;;
43620;SDS011;29213;50.770;7.298;2023-10-13T15:22:41;7.35;;;3.80;;
43620;SDS011;29213;50.770;7.298;2023-10-13T15:25:12;12.98;;;4.97;;
43620;SDS011;29213;50.770;7.298;2023-10-13T15:27:53;10.57;;;4.28;;
43620;SDS011;29213;50.770;7.298;2023-10-13T15:30:22;9.05;;;4.43;;
43620;SDS011;29213;50.770;7.298;2023-10-13T15:32:56;7.32;;;3.83;;
43620;SDS011;29213;50.770;7.298;2023-10-13T15:35:22;8.07;;;3.88;;
43620;SDS011;29213;50.770;7.298;2023-10-13T15:37:53;8.45;;;4.75;;
43620;SDS011;29213;50.770;7.298;2023-10-13T15:40:20;8.82;;;4.22;;
43620;SDS011;29213;50.770;7.298;2023-10-13T15:42:46;7.05;;;3.90;;
43620;SDS011;29213;50.770;7.298;2023-10-13T15:45:12;7.20;;;4.15;;
43620;SDS011;29213;50.770;7.298;2023-10-13T15:47:47;8.10;;;3.95;;
43620;SDS011;29213;50.770;7.298;2023-10-13T15:50:13;8.57;;;4.20;;
43620;SDS011;29213;50.770;7.298;2023-10-13T15:52:43;8.05;;;3.88;;
43620;SDS011;29213;50.770;7.298;2023-10-13T15:55:11;6.85;;;3.90;;
43620;SDS011;29213;50.770;7.298;2023-10-13T15:57:39;7.97;;;4.05;;
43620;SDS011;29213;50.770;7.298;2023-10-13T16:00:05;8.10;;;4.13;;
43620;SDS011;29213;50.770;7.298;2023-10-13T16:02:51;6.90;;;3.53;;
43620;SDS011;29213;50.770;7.298;2023-10-13T16:05:20;8.80;;;4.32;;
43620;SDS011;29213;50.770;7.298;2023-10-13T16:07:49;9.38;;;3.80;;
43620;SDS011;29213;50.770;7.298;2023-10-13T16:10:16;7.07;;;4.20;;
43620;SDS011;29213;50.770;7.298;2023-10-13T16:12:42;8.48;;;4.30;;
43620;SDS011;29213;50.770;7.298;2023-10-13T16:15:10;5.95;;;3.95;;
43620;SDS011;29213;50.770;7.298;2023-10-13T16:17:41;5.82;;;3.50;;